Cape Flattery, Washington
Current Conditions -  °F | °C
As of 7:53 AM on Thursday 27 Nov 2014 (Local Time) from KUIL Reporting Station
Light Rain Light Rain  
Wind Chill: 55°   Ceiling: 400
Heat Index: 55°   Visibility: 4mi
Dew Point: 55°   Wind: 10mph
Humidity: 100%   Direction: 210°SSW
Pressure: 29.79"   Gusts: 22mph
Location:  48.3685°N, 124.623°W
Report Text: KUIL 271553Z AUTO 21009G19KT 4SM -RA BR OVC004 13/13 A2979 RMK AO2 RAE1456B53 CIG 003V007 SLP088 P0000 T01280128
Loading
Personal Weather Stations






























Interactive Weather Map New forecast layout! Learn more

10-Day Weather Forecast

Advertisements
Track Severe Weather on mobile